sensor_id;sensor_type;location;lat;lon;timestamp;temperature;humidity
20204;DHT22;10261;49.010;12.034;2022-09-12T00:00:25;15.50;99.90
20204;DHT22;10261;49.010;12.034;2022-09-12T00:01:27;15.50;99.90
20204;DHT22;10261;49.010;12.034;2022-09-12T00:02:30;15.50;99.90
20204;DHT22;10261;49.010;12.034;2022-09-12T00:03:32;15.40;99.90
20204;DHT22;10261;49.010;12.034;2022-09-12T00:04:36;15.40;99.90
20204;DHT22;10261;49.010;12.034;2022-09-12T00:05:42;15.30;99.90
20204;DHT22;10261;49.010;12.034;2022-09-12T00:06:45;15.30;99.90
20204;DHT22;10261;49.010;12.034;2022-09-12T00:07:48;15.30;99.90
20204;DHT22;10261;49.010;12.034;2022-09-12T00:08:53;15.40;99.90
20204;DHT22;10261;49.010;12.034;2022-09-12T00:09:56;15.40;99.90
20204;DHT22;10261;49.010;12.034;2022-09-12T00:11:04;15.40;99.90
20204;DHT22;10261;49.010;12.034;2022-09-12T00:12:08;15.30;99.90
20204;DHT22;10261;49.010;12.034;2022-09-12T00:13:11;15.30;99.90
20204;DHT22;10261;49.010;12.034;2022-09-12T00:14:17;15.30;99.90
20204;DHT22;10261;49.010;12.034;2022-09-12T00:15:19;15.30;99.90
20204;DHT22;10261;49.010;12.034;2022-09-12T00:16:24;15.20;99.90
20204;DHT22;10261;49.010;12.034;2022-09-12T00:17:27;15.30;99.90
20204;DHT22;10261;49.010;12.034;2022-09-12T00:18:30;15.20;99.90
20204;DHT22;10261;49.010;12.034;2022-09-12T00:19:33;15.20;99.90
20204;DHT22;10261;49.010;12.034;2022-09-12T00:20:40;15.20;99.90
20204;DHT22;10261;49.010;12.034;2022-09-12T00:21:42;15.30;99.90
20204;DHT22;10261;49.010;12.034;2022-09-12T00:22:45;15.20;99.90
20204;DHT22;10261;49.010;12.034;2022-09-12T00:23:48;15.20;99.90
20204;DHT22;10261;49.010;12.034;2022-09-12T00:24:51;15.20;99.90
20204;DHT22;10261;49.010;12.034;2022-09-12T00:25:53;15.10;99.90
20204;DHT22;10261;49.010;12.034;2022-09-12T00:26:56;15.20;99.90
20204;DHT22;10261;49.010;12.034;2022-09-12T00:28:00;15.20;99.90
20204;DHT22;10261;49.010;12.034;2022-09-12T00:29:03;15.10;99.90
20204;DHT22;10261;49.010;12.034;2022-09-12T00:30:07;15.10;99.90
20204;DHT22;10261;49.010;12.034;2022-09-12T00:31:11;15.10;99.90
20204;DHT22;10261;49.010;12.034;2022-09-12T00:32:15;15.20;99.90
20204;DHT22;10261;49.010;12.034;2022-09-12T00:33:17;15.10;99.90
20204;DHT22;10261;49.010;12.034;2022-09-12T00:34:20;15.10;99.90
20204;DHT22;10261;49.010;12.034;2022-09-12T00:35:22;15.10;99.90
20204;DHT22;10261;49.010;12.034;2022-09-12T00:36:26;15.10;99.90
20204;DHT22;10261;49.010;12.034;2022-09-12T00:37:28;15.10;99.90
20204;DHT22;10261;49.010;12.034;2022-09-12T00:38:32;15.10;99.90
20204;DHT22;10261;49.010;12.034;2022-09-12T00:39:34;15.10;99.90
20204;DHT22;10261;49.010;12.034;2022-09-12T00:40:37;15.10;99.90
20204;DHT22;10261;49.010;12.034;2022-09-12T00:41:39;15.10;99.90
20204;DHT22;10261;49.010;12.034;2022-09-12T00:42:42;15.10;99.90
20204;DHT22;10261;49.010;12.034;2022-09-12T00:43:47;15.10;99.90
20204;DHT22;10261;49.010;12.034;2022-09-12T00:44:51;15.00;99.90
20204;DHT22;10261;49.010;12.034;2022-09-12T00:45:53;15.00;99.90
20204;DHT22;10261;49.010;12.034;2022-09-12T00:46:58;15.00;99.90
20204;DHT22;10261;49.010;12.034;2022-09-12T00:48:02;15.00;99.90
20204;DHT22;10261;49.010;12.034;2022-09-12T00:49:10;15.00;99.90
20204;DHT22;10261;49.010;12.034;2022-09-12T00:50:14;14.90;99.90
20204;DHT22;10261;49.010;12.034;2022-09-12T00:51:18;14.90;99.90
20204;DHT22;10261;49.010;12.034;2022-09-12T00:52:23;14.90;99.90
20204;DHT22;10261;49.010;12.034;2022-09-12T00:53:27;15.00;99.90
20204;DHT22;10261;49.010;12.034;2022-09-12T00:54:32;14.90;99.90
20204;DHT22;10261;49.010;12.034;2022-09-12T00:55:40;15.00;99.90
20204;DHT22;10261;49.010;12.034;2022-09-12T00:56:43;15.00;99.90
20204;DHT22;10261;49.010;12.034;2022-09-12T00:57:51;15.00;99.90
20204;DHT22;10261;49.010;12.034;2022-09-12T00:59:00;15.00;99.90
20204;DHT22;10261;49.010;12.034;2022-09-12T01:00:08;15.00;99.90
20204;DHT22;10261;49.010;12.034;2022-09-12T01:01:17;15.00;99.90
20204;DHT22;10261;49.010;12.034;2022-09-12T01:02:21;15.00;99.90
20204;DHT22;10261;49.010;12.034;2022-09-12T01:03:24;15.00;99.90
20204;DHT22;10261;49.010;12.034;2022-09-12T01:04:28;14.90;99.90
20204;DHT22;10261;49.010;12.034;2022-09-12T01:05:34;15.00;99.90
20204;DHT22;10261;49.010;12.034;2022-09-12T01:06:39;15.00;99.90
20204;DHT22;10261;49.010;12.034;2022-09-12T01:07:42;15.00;99.90
20204;DHT22;10261;49.010;12.034;2022-09-12T01:08:50;15.00;99.90
20204;DHT22;10261;49.010;12.034;2022-09-12T01:09:54;15.00;99.90
20204;DHT22;10261;49.010;12.034;2022-09-12T01:10:56;14.90;99.90
20204;DHT22;10261;49.010;12.034;2022-09-12T01:12:01;15.00;99.90
20204;DHT22;10261;49.010;12.034;2022-09-12T01:13:05;15.00;99.90
20204;DHT22;10261;49.010;12.034;2022-09-12T01:14:10;15.00;99.90
20204;DHT22;10261;49.010;12.034;2022-09-12T01:15:13;15.00;99.90
20204;DHT22;10261;49.010;12.034;2022-09-12T01:17:18;14.90;99.90
20204;DHT22;10261;49.010;12.034;2022-09-12T01:18:27;15.00;99.90
20204;DHT22;10261;49.010;12.034;2022-09-12T01:20:04;14.90;99.90
20204;DHT22;10261;49.010;12.034;2022-09-12T01:21:21;14.90;99.90
20204;DHT22;10261;49.010;12.034;2022-09-12T01:22:41;14.90;99.90
20204;DHT22;10261;49.010;12.034;2022-09-12T01:24:16;14.90;99.90
20204;DHT22;10261;49.010;12.034;2022-09-12T01:25:27;14.90;99.90
20204;DHT22;10261;49.010;12.034;2022-09-12T01:26:53;14.90;99.90
20204;DHT22;10261;49.010;12.034;2022-09-12T01:28:11;14.80;99.90
20204;DHT22;10261;49.010;12.034;2022-09-12T01:29:34;14.80;99.90
20204;DHT22;10261;49.010;12.034;2022-09-12T01:30:48;14.80;99.90
20204;DHT22;10261;49.010;12.034;2022-09-12T01:32:03;14.80;99.90
20204;DHT22;10261;49.010;12.034;2022-09-12T01:34:51;14.90;99.90
20204;DHT22;10261;49.010;12.034;2022-09-12T01:37:26;14.80;99.90
20204;DHT22;10261;49.010;12.034;2022-09-12T01:38:37;14.80;99.90
20204;DHT22;10261;49.010;12.034;2022-09-12T01:39:49;14.70;99.90
20204;DHT22;10261;49.010;12.034;2022-09-12T01:41:00;14.70;99.90
20204;DHT22;10261;49.010;12.034;2022-09-12T01:42:11;14.70;99.90
20204;DHT22;10261;49.010;12.034;2022-09-12T01:43:20;14.80;99.90
20204;DHT22;10261;49.010;12.034;2022-09-12T01:44:34;14.80;99.90
20204;DHT22;10261;49.010;12.034;2022-09-12T01:45:40;14.90;99.90
20204;DHT22;10261;49.010;12.034;2022-09-12T01:46:52;14.90;99.90
20204;DHT22;10261;49.010;12.034;2022-09-12T01:48:02;14.90;99.90
20204;DHT22;10261;49.010;12.034;2022-09-12T01:49:13;14.80;99.90
20204;DHT22;10261;49.010;12.034;2022-09-12T01:50:19;14.80;99.90
20204;DHT22;10261;49.010;12.034;2022-09-12T01:51:26;14.80;99.90
20204;DHT22;10261;49.010;12.034;2022-09-12T01:52:35;14.80;99.90
20204;DHT22;10261;49.010;12.034;2022-09-12T01:53:43;14.80;99.90
20204;DHT22;10261;49.010;12.034;2022-09-12T01:54:49;14.80;99.90
20204;DHT22;10261;49.010;12.034;2022-09-12T01:55:55;14.80;99.90
20204;DHT22;10261;49.010;12.034;2022-09-12T01:57:02;14.80;99.90
20204;DHT22;10261;49.010;12.034;2022-09-12T01:58:11;14.90;99.90
20204;DHT22;10261;49.010;12.034;2022-09-12T01:59:19;14.90;99.90
20204;DHT22;10261;49.010;12.034;2022-09-12T02:00:26;14.90;99.90
20204;DHT22;10261;49.010;12.034;2022-09-12T02:01:30;14.80;99.90
20204;DHT22;10261;49.010;12.034;2022-09-12T02:02:37;14.80;99.90
20204;DHT22;10261;49.010;12.034;2022-09-12T02:03:43;14.80;99.90
20204;DHT22;10261;49.010;12.034;2022-09-12T02:04:53;14.90;99.90
20204;DHT22;10261;49.010;12.034;2022-09-12T02:05:59;14.80;99.90
20204;DHT22;10261;49.010;12.034;2022-09-12T02:07:09;14.90;99.90
20204;DHT22;10261;49.010;12.034;2022-09-12T02:08:16;14.80;99.90
20204;DHT22;10261;49.010;12.034;2022-09-12T02:09:22;14.90;99.90
20204;DHT22;10261;49.010;12.034;2022-09-12T02:10:30;14.80;99.90
20204;DHT22;10261;49.010;12.034;2022-09-12T02:11:35;14.80;99.90
20204;DHT22;10261;49.010;12.034;2022-09-12T02:12:44;14.80;99.90
20204;DHT22;10261;49.010;12.034;2022-09-12T02:13:51;14.70;99.90
20204;DHT22;10261;49.010;12.034;2022-09-12T02:15:00;14.60;99.90
20204;DHT22;10261;49.010;12.034;2022-09-12T02:16:07;14.60;99.90
20204;DHT22;10261;49.010;12.034;2022-09-12T02:17:13;14.70;99.90
20204;DHT22;10261;49.010;12.034;2022-09-12T02:18:19;14.70;99.90
20204;DHT22;10261;49.010;12.034;2022-09-12T02:19:23;14.70;99.90
20204;DHT22;10261;49.010;12.034;2022-09-12T02:20:31;14.80;99.90
20204;DHT22;10261;49.010;12.034;2022-09-12T02:21:53;14.70;99.90
20204;DHT22;10261;49.010;12.034;2022-09-12T02:22:57;14.70;99.90
20204;DHT22;10261;49.010;12.034;2022-09-12T02:24:02;14.70;99.90
20204;DHT22;10261;49.010;12.034;2022-09-12T02:25:08;14.70;99.90
20204;DHT22;10261;49.010;12.034;2022-09-12T02:26:18;14.70;99.90
20204;DHT22;10261;49.010;12.034;2022-09-12T02:27:23;14.70;99.90
20204;DHT22;10261;49.010;12.034;2022-09-12T02:28:29;14.70;99.90
20204;DHT22;10261;49.010;12.034;2022-09-12T02:29:33;14.70;99.90
20204;DHT22;10261;49.010;12.034;2022-09-12T02:30:40;14.70;99.90
20204;DHT22;10261;49.010;12.034;2022-09-12T02:31:46;14.70;99.90
20204;DHT22;10261;49.010;12.034;2022-09-12T02:32:57;14.60;99.90
20204;DHT22;10261;49.010;12.034;2022-09-12T02:34:09;14.60;99.90
20204;DHT22;10261;49.010;12.034;2022-09-12T02:35:18;14.60;99.90
20204;DHT22;10261;49.010;12.034;2022-09-12T02:36:31;14.60;99.90
20204;DHT22;10261;49.010;12.034;2022-09-12T02:37:45;14.60;99.90
20204;DHT22;10261;49.010;12.034;2022-09-12T02:38:50;14.70;99.90
20204;DHT22;10261;49.010;12.034;2022-09-12T02:39:52;14.70;99.90
20204;DHT22;10261;49.010;12.034;2022-09-12T02:40:56;14.60;99.90
20204;DHT22;10261;49.010;12.034;2022-09-12T02:41:59;14.70;99.90
20204;DHT22;10261;49.010;12.034;2022-09-12T02:43:04;14.70;99.90
20204;DHT22;10261;49.010;12.034;2022-09-12T02:44:06;14.60;99.90
20204;DHT22;10261;49.010;12.034;2022-09-12T02:45:09;14.60;99.90
20204;DHT22;10261;49.010;12.034;2022-09-12T02:46:17;14.70;99.90
20204;DHT22;10261;49.010;12.034;2022-09-12T02:47:25;14.70;99.90
20204;DHT22;10261;49.010;12.034;2022-09-12T02:48:30;14.70;99.90
20204;DHT22;10261;49.010;12.034;2022-09-12T02:49:37;14.70;99.90
20204;DHT22;10261;49.010;12.034;2022-09-12T02:50:40;14.70;99.90
20204;DHT22;10261;49.010;12.034;2022-09-12T02:51:44;14.70;99.90
20204;DHT22;10261;49.010;12.034;2022-09-12T02:52:47;14.70;99.90
20204;DHT22;10261;49.010;12.034;2022-09-12T02:53:50;14.70;99.90
20204;DHT22;10261;49.010;12.034;2022-09-12T02:54:54;14.60;99.90
20204;DHT22;10261;49.010;12.034;2022-09-12T02:55:59;14.60;99.90
20204;DHT22;10261;49.010;12.034;2022-09-12T02:57:01;14.60;99.90
20204;DHT22;10261;49.010;12.034;2022-09-12T02:58:06;14.60;99.90
20204;DHT22;10261;49.010;12.034;2022-09-12T02:59:11;14.60;99.90
20204;DHT22;10261;49.010;12.034;2022-09-12T03:00:16;14.50;99.90
20204;DHT22;10261;49.010;12.034;2022-09-12T03:01:28;14.60;99.90
20204;DHT22;10261;49.010;12.034;2022-09-12T03:02:45;14.60;99.90
20204;DHT22;10261;49.010;12.034;2022-09-12T03:04:10;14.60;99.90
20204;DHT22;10261;49.010;12.034;2022-09-12T03:05:23;14.50;99.90
20204;DHT22;10261;49.010;12.034;2022-09-12T03:06:32;14.50;99.90
20204;DHT22;10261;49.010;12.034;2022-09-12T03:07:51;14.40;99.90
20204;DHT22;10261;49.010;12.034;2022-09-12T03:09:02;14.40;99.90
20204;DHT22;10261;49.010;12.034;2022-09-12T03:10:18;14.40;99.90
20204;DHT22;10261;49.010;12.034;2022-09-12T03:12:55;14.40;99.90
20204;DHT22;10261;49.010;12.034;2022-09-12T03:14:09;14.40;99.90
20204;DHT22;10261;49.010;12.034;2022-09-12T03:15:25;14.40;99.90
20204;DHT22;10261;49.010;12.034;2022-09-12T03:16:34;14.30;99.90
20204;DHT22;10261;49.010;12.034;2022-09-12T03:17:50;14.30;99.90
20204;DHT22;10261;49.010;12.034;2022-09-12T03:19:01;14.20;99.90
20204;DHT22;10261;49.010;12.034;2022-09-12T03:20:10;14.30;99.90
20204;DHT22;10261;49.010;12.034;2022-09-12T03:21:20;14.30;99.90
20204;DHT22;10261;49.010;12.034;2022-09-12T03:22:29;14.40;99.90
20204;DHT22;10261;49.010;12.034;2022-09-12T03:23:35;14.40;99.90
20204;DHT22;10261;49.010;12.034;2022-09-12T03:24:47;14.40;99.90
20204;DHT22;10261;49.010;12.034;2022-09-12T03:25:55;14.40;99.90
20204;DHT22;10261;49.010;12.034;2022-09-12T03:27:05;14.40;99.90
20204;DHT22;10261;49.010;12.034;2022-09-12T03:28:12;14.40;99.90
20204;DHT22;10261;49.010;12.034;2022-09-12T03:29:17;14.30;99.90
20204;DHT22;10261;49.010;12.034;2022-09-12T03:30:20;14.30;99.90
20204;DHT22;10261;49.010;12.034;2022-09-12T03:31:23;14.30;99.90
20204;DHT22;10261;49.010;12.034;2022-09-12T03:32:39;14.30;99.90
20204;DHT22;10261;49.010;12.034;2022-09-12T03:33:41;14.40;99.90
20204;DHT22;10261;49.010;12.034;2022-09-12T03:34:44;14.40;99.90
20204;DHT22;10261;49.010;12.034;2022-09-12T03:35:47;14.40;99.90
20204;DHT22;10261;49.010;12.034;2022-09-12T03:36:53;14.30;99.90
20204;DHT22;10261;49.010;12.034;2022-09-12T03:37:56;14.40;99.90
20204;DHT22;10261;49.010;12.034;2022-09-12T03:38:58;14.40;99.90
20204;DHT22;10261;49.010;12.034;2022-09-12T03:40:01;14.40;99.90
20204;DHT22;10261;49.010;12.034;2022-09-12T03:41:04;14.40;99.90
20204;DHT22;10261;49.010;12.034;2022-09-12T03:42:07;14.30;99.90
20204;DHT22;10261;49.010;12.034;2022-09-12T03:43:09;14.30;99.90
20204;DHT22;10261;49.010;12.034;2022-09-12T03:44:12;14.30;99.90
20204;DHT22;10261;49.010;12.034;2022-09-12T03:45:14;14.30;99.90
20204;DHT22;10261;49.010;12.034;2022-09-12T03:46:18;14.30;99.90
20204;DHT22;10261;49.010;12.034;2022-09-12T03:47:20;14.40;99.90
20204;DHT22;10261;49.010;12.034;2022-09-12T03:48:23;14.30;99.90
20204;DHT22;10261;49.010;12.034;2022-09-12T03:49:25;14.40;99.90
20204;DHT22;10261;49.010;12.034;2022-09-12T03:50:27;14.30;99.90
20204;DHT22;10261;49.010;12.034;2022-09-12T03:51:29;14.30;99.90
20204;DHT22;10261;49.010;12.034;2022-09-12T03:52:34;14.30;99.90
20204;DHT22;10261;49.010;12.034;2022-09-12T03:53:36;14.30;99.90
20204;DHT22;10261;49.010;12.034;2022-09-12T03:54:39;14.30;99.90
20204;DHT22;10261;49.010;12.034;2022-09-12T03:55:41;14.40;99.90
20204;DHT22;10261;49.010;12.034;2022-09-12T03:56:44;14.40;99.90
20204;DHT22;10261;49.010;12.034;2022-09-12T03:57:46;14.40;99.90
20204;DHT22;10261;49.010;12.034;2022-09-12T03:58:49;14.30;99.90
20204;DHT22;10261;49.010;12.034;2022-09-12T03:59:51;14.40;99.90
20204;DHT22;10261;49.010;12.034;2022-09-12T04:01:56;14.40;99.90
20204;DHT22;10261;49.010;12.034;2022-09-12T04:02:59;14.30;99.90
20204;DHT22;10261;49.010;12.034;2022-09-12T04:04:02;14.40;99.90
20204;DHT22;10261;49.010;12.034;2022-09-12T04:05:05;14.40;99.90
20204;DHT22;10261;49.010;12.034;2022-09-12T04:06:08;14.30;99.90
20204;DHT22;10261;49.010;12.034;2022-09-12T04:07:11;14.30;99.90
20204;DHT22;10261;49.010;12.034;2022-09-12T04:08:14;14.30;99.90
20204;DHT22;10261;49.010;12.034;2022-09-12T04:09:17;14.30;99.90
20204;DHT22;10261;49.010;12.034;2022-09-12T04:10:19;14.30;99.90
20204;DHT22;10261;49.010;12.034;2022-09-12T04:11:23;14.30;99.90
20204;DHT22;10261;49.010;12.034;2022-09-12T04:12:25;14.40;99.90
20204;DHT22;10261;49.010;12.034;2022-09-12T04:13:28;14.30;99.90
20204;DHT22;10261;49.010;12.034;2022-09-12T04:14:30;14.40;99.90
20204;DHT22;10261;49.010;12.034;2022-09-12T04:15:33;14.30;99.90
20204;DHT22;10261;49.010;12.034;2022-09-12T04:16:35;14.30;99.90
20204;DHT22;10261;49.010;12.034;2022-09-12T04:17:38;14.30;99.90
20204;DHT22;10261;49.010;12.034;2022-09-12T04:18:40;14.30;99.90
20204;DHT22;10261;49.010;12.034;2022-09-12T04:19:43;14.30;99.90
20204;DHT22;10261;49.010;12.034;2022-09-12T04:20:45;14.40;99.90
20204;DHT22;10261;49.010;12.034;2022-09-12T04:21:48;14.40;99.90
20204;DHT22;10261;49.010;12.034;2022-09-12T04:22:50;14.40;99.90
20204;DHT22;10261;49.010;12.034;2022-09-12T04:23:54;14.40;99.90
20204;DHT22;10261;49.010;12.034;2022-09-12T04:24:57;14.40;99.90
20204;DHT22;10261;49.010;12.034;2022-09-12T04:26:00;14.40;99.90
20204;DHT22;10261;49.010;12.034;2022-09-12T04:27:03;14.40;99.90
20204;DHT22;10261;49.010;12.034;2022-09-12T04:28:08;14.40;99.90
20204;DHT22;10261;49.010;12.034;2022-09-12T04:29:12;14.40;99.90
20204;DHT22;10261;49.010;12.034;2022-09-12T04:30:15;14.40;99.90
20204;DHT22;10261;49.010;12.034;2022-09-12T04:31:18;14.40;99.90
20204;DHT22;10261;49.010;12.034;2022-09-12T04:32:23;14.40;99.90
20204;DHT22;10261;49.010;12.034;2022-09-12T04:33:26;14.40;99.90
20204;DHT22;10261;49.010;12.034;2022-09-12T04:34:29;14.40;99.90
20204;DHT22;10261;49.010;12.034;2022-09-12T04:35:34;14.50;99.90
20204;DHT22;10261;49.010;12.034;2022-09-12T04:36:36;14.50;99.90
20204;DHT22;10261;49.010;12.034;2022-09-12T04:37:39;14.50;99.90
20204;DHT22;10261;49.010;12.034;2022-09-12T04:38:41;14.40;99.90
20204;DHT22;10261;49.010;12.034;2022-09-12T04:39:46;14.50;99.90
20204;DHT22;10261;49.010;12.034;2022-09-12T04:40:50;14.50;99.90
20204;DHT22;10261;49.010;12.034;2022-09-12T04:41:53;14.40;99.90
20204;DHT22;10261;49.010;12.034;2022-09-12T04:44:00;14.40;99.90
20204;DHT22;10261;49.010;12.034;2022-09-12T04:45:03;14.40;99.90
20204;DHT22;10261;49.010;12.034;2022-09-12T04:46:07;14.40;99.90
20204;DHT22;10261;49.010;12.034;2022-09-12T04:47:10;14.40;99.90
20204;DHT22;10261;49.010;12.034;2022-09-12T04:48:13;14.50;99.90
20204;DHT22;10261;49.010;12.034;2022-09-12T04:49:15;14.40;99.90
20204;DHT22;10261;49.010;12.034;2022-09-12T04:50:20;14.40;99.90
20204;DHT22;10261;49.010;12.034;2022-09-12T04:51:24;14.40;99.90
20204;DHT22;10261;49.010;12.034;2022-09-12T04:52:28;14.50;99.90
20204;DHT22;10261;49.010;12.034;2022-09-12T04:53:31;14.40;99.90
20204;DHT22;10261;49.010;12.034;2022-09-12T04:54:33;14.50;99.90
20204;DHT22;10261;49.010;12.034;2022-09-12T04:55:37;14.50;99.90
20204;DHT22;10261;49.010;12.034;2022-09-12T04:56:41;14.50;99.90
20204;DHT22;10261;49.010;12.034;2022-09-12T04:57:44;14.50;99.90
20204;DHT22;10261;49.010;12.034;2022-09-12T04:58:47;14.50;99.90
20204;DHT22;10261;49.010;12.034;2022-09-12T04:59:50;14.50;99.90
20204;DHT22;10261;49.010;12.034;2022-09-12T05:00:53;14.50;99.90
20204;DHT22;10261;49.010;12.034;2022-09-12T05:01:55;14.30;99.90
20204;DHT22;10261;49.010;12.034;2022-09-12T05:02:58;14.30;99.90
20204;DHT22;10261;49.010;12.034;2022-09-12T05:04:01;14.30;99.90
20204;DHT22;10261;49.010;12.034;2022-09-12T05:05:05;14.30;99.90
20204;DHT22;10261;49.010;12.034;2022-09-12T05:06:08;14.30;99.90
20204;DHT22;10261;49.010;12.034;2022-09-12T05:07:12;14.30;99.90
20204;DHT22;10261;49.010;12.034;2022-09-12T05:08:14;14.30;99.90
20204;DHT22;10261;49.010;12.034;2022-09-12T05:09:17;14.20;99.90
20204;DHT22;10261;49.010;12.034;2022-09-12T05:10:19;14.30;99.90
20204;DHT22;10261;49.010;12.034;2022-09-12T05:11:29;14.30;99.90
20204;DHT22;10261;49.010;12.034;2022-09-12T05:12:52;14.30;99.90
20204;DHT22;10261;49.010;12.034;2022-09-12T05:13:55;14.30;99.90
20204;DHT22;10261;49.010;12.034;2022-09-12T05:14:57;14.30;99.90
20204;DHT22;10261;49.010;12.034;2022-09-12T05:16:02;14.30;99.90
20204;DHT22;10261;49.010;12.034;2022-09-12T05:17:04;14.30;99.90
20204;DHT22;10261;49.010;12.034;2022-09-12T05:18:07;14.30;99.90
20204;DHT22;10261;49.010;12.034;2022-09-12T05:19:10;14.30;99.90
20204;DHT22;10261;49.010;12.034;2022-09-12T05:20:13;14.30;99.90
20204;DHT22;10261;49.010;12.034;2022-09-12T05:21:18;14.30;99.90
20204;DHT22;10261;49.010;12.034;2022-09-12T05:22:21;14.30;99.90
20204;DHT22;10261;49.010;12.034;2022-09-12T05:23:24;14.40;99.90
20204;DHT22;10261;49.010;12.034;2022-09-12T05:24:26;14.40;99.90
20204;DHT22;10261;49.010;12.034;2022-09-12T05:25:29;14.40;99.90
20204;DHT22;10261;49.010;12.034;2022-09-12T05:26:33;14.50;99.90
20204;DHT22;10261;49.010;12.034;2022-09-12T05:27:35;14.50;99.90
20204;DHT22;10261;49.010;12.034;2022-09-12T05:28:38;14.50;99.90
20204;DHT22;10261;49.010;12.034;2022-09-12T05:29:41;14.60;99.90
20204;DHT22;10261;49.010;12.034;2022-09-12T05:30:44;14.60;99.90
20204;DHT22;10261;49.010;12.034;2022-09-12T05:31:46;14.50;99.90
20204;DHT22;10261;49.010;12.034;2022-09-12T05:32:50;14.50;99.90
20204;DHT22;10261;49.010;12.034;2022-09-12T05:33:54;14.50;99.90
20204;DHT22;10261;49.010;12.034;2022-09-12T05:34:57;14.50;99.90
20204;DHT22;10261;49.010;12.034;2022-09-12T05:35:59;14.50;99.90
20204;DHT22;10261;49.010;12.034;2022-09-12T05:37:02;14.50;99.90
20204;DHT22;10261;49.010;12.034;2022-09-12T05:38:04;14.40;99.90
20204;DHT22;10261;49.010;12.034;2022-09-12T05:39:07;14.40;99.90
20204;DHT22;10261;49.010;12.034;2022-09-12T05:40:09;14.40;99.90
20204;DHT22;10261;49.010;12.034;2022-09-12T05:41:16;14.40;99.90
20204;DHT22;10261;49.010;12.034;2022-09-12T05:42:28;14.40;99.90
20204;DHT22;10261;49.010;12.034;2022-09-12T05:43:31;14.40;99.90
20204;DHT22;10261;49.010;12.034;2022-09-12T05:44:34;14.40;99.90
20204;DHT22;10261;49.010;12.034;2022-09-12T05:45:37;14.50;99.90
20204;DHT22;10261;49.010;12.034;2022-09-12T05:46:41;14.50;99.90
20204;DHT22;10261;49.010;12.034;2022-09-12T05:47:45;14.50;99.90
20204;DHT22;10261;49.010;12.034;2022-09-12T05:48:48;14.40;99.90
20204;DHT22;10261;49.010;12.034;2022-09-12T05:49:56;14.50;99.90
20204;DHT22;10261;49.010;12.034;2022-09-12T05:51:00;14.50;99.90
20204;DHT22;10261;49.010;12.034;2022-09-12T05:52:03;14.50;99.90
20204;DHT22;10261;49.010;12.034;2022-09-12T05:53:06;14.50;99.90
20204;DHT22;10261;49.010;12.034;2022-09-12T05:54:11;14.40;99.90
20204;DHT22;10261;49.010;12.034;2022-09-12T05:55:14;14.50;99.90
20204;DHT22;10261;49.010;12.034;2022-09-12T05:56:19;14.60;99.90
20204;DHT22;10261;49.010;12.034;2022-09-12T05:57:23;14.70;99.90
20204;DHT22;10261;49.010;12.034;2022-09-12T05:58:28;14.70;99.90
20204;DHT22;10261;49.010;12.034;2022-09-12T05:59:30;14.60;99.90
20204;DHT22;10261;49.010;12.034;2022-09-12T06:00:33;14.70;99.90
20204;DHT22;10261;49.010;12.034;2022-09-12T06:01:35;14.70;99.90
20204;DHT22;10261;49.010;12.034;2022-09-12T06:02:38;14.70;99.90
20204;DHT22;10261;49.010;12.034;2022-09-12T06:03:42;14.60;99.90
20204;DHT22;10261;49.010;12.034;2022-09-12T06:04:46;14.80;99.90
20204;DHT22;10261;49.010;12.034;2022-09-12T06:05:49;14.60;99.90
20204;DHT22;10261;49.010;12.034;2022-09-12T06:06:51;14.60;99.90
20204;DHT22;10261;49.010;12.034;2022-09-12T06:07:54;14.60;99.90
20204;DHT22;10261;49.010;12.034;2022-09-12T06:08:58;14.60;99.90
20204;DHT22;10261;49.010;12.034;2022-09-12T06:10:01;14.60;99.90
20204;DHT22;10261;49.010;12.034;2022-09-12T06:11:04;14.60;99.90
20204;DHT22;10261;49.010;12.034;2022-09-12T06:12:07;14.60;99.90
20204;DHT22;10261;49.010;12.034;2022-09-12T06:13:10;14.60;99.90
20204;DHT22;10261;49.010;12.034;2022-09-12T06:14:15;14.60;99.90
20204;DHT22;10261;49.010;12.034;2022-09-12T06:15:18;14.60;99.90
20204;DHT22;10261;49.010;12.034;2022-09-12T06:16:21;14.50;99.90
20204;DHT22;10261;49.010;12.034;2022-09-12T06:17:25;14.60;99.90
20204;DHT22;10261;49.010;12.034;2022-09-12T06:18:27;14.70;99.90
20204;DHT22;10261;49.010;12.034;2022-09-12T06:19:30;14.60;99.90
20204;DHT22;10261;49.010;12.034;2022-09-12T06:20:32;14.70;99.90
20204;DHT22;10261;49.010;12.034;2022-09-12T06:21:40;14.70;99.90
20204;DHT22;10261;49.010;12.034;2022-09-12T06:22:42;14.70;99.90
20204;DHT22;10261;49.010;12.034;2022-09-12T06:23:45;14.70;99.90
20204;DHT22;10261;49.010;12.034;2022-09-12T06:24:48;14.70;99.90
20204;DHT22;10261;49.010;12.034;2022-09-12T06:25:58;14.80;99.90
20204;DHT22;10261;49.010;12.034;2022-09-12T06:27:00;14.80;99.90
20204;DHT22;10261;49.010;12.034;2022-09-12T06:28:03;14.80;99.90
20204;DHT22;10261;49.010;12.034;2022-09-12T06:29:05;14.70;99.90
20204;DHT22;10261;49.010;12.034;2022-09-12T06:30:11;14.70;99.90
20204;DHT22;10261;49.010;12.034;2022-09-12T06:31:15;14.80;99.90
20204;DHT22;10261;49.010;12.034;2022-09-12T06:32:19;14.80;99.90
20204;DHT22;10261;49.010;12.034;2022-09-12T06:33:22;14.80;99.90
20204;DHT22;10261;49.010;12.034;2022-09-12T06:34:23;14.80;99.90
20204;DHT22;10261;49.010;12.034;2022-09-12T06:35:27;14.70;99.90
20204;DHT22;10261;49.010;12.034;2022-09-12T06:36:31;14.80;99.90
20204;DHT22;10261;49.010;12.034;2022-09-12T06:37:34;14.80;99.90
20204;DHT22;10261;49.010;12.034;2022-09-12T06:38:36;14.90;99.90
20204;DHT22;10261;49.010;12.034;2022-09-12T06:39:39;14.80;99.90
20204;DHT22;10261;49.010;12.034;2022-09-12T06:40:42;14.80;99.90
20204;DHT22;10261;49.010;12.034;2022-09-12T06:41:46;14.80;99.90
20204;DHT22;10261;49.010;12.034;2022-09-12T06:42:50;14.90;99.90
20204;DHT22;10261;49.010;12.034;2022-09-12T06:43:52;14.80;99.90
20204;DHT22;10261;49.010;12.034;2022-09-12T06:44:55;14.90;99.90
20204;DHT22;10261;49.010;12.034;2022-09-12T06:45:59;14.80;99.90
20204;DHT22;10261;49.010;12.034;2022-09-12T06:47:02;14.80;99.90
20204;DHT22;10261;49.010;12.034;2022-09-12T06:48:06;14.80;99.90
20204;DHT22;10261;49.010;12.034;2022-09-12T06:49:08;14.80;99.90
20204;DHT22;10261;49.010;12.034;2022-09-12T06:50:11;14.80;99.90
20204;DHT22;10261;49.010;12.034;2022-09-12T06:51:14;14.80;99.90
20204;DHT22;10261;49.010;12.034;2022-09-12T06:52:17;14.80;99.90
20204;DHT22;10261;49.010;12.034;2022-09-12T06:53:19;14.80;99.90